Time;durP1;ratioP1;P1;durP2;ratioP2;P2;SDS_P1;SDS_P2;PMS_P1;PMS_P2;Temp;Humidity;BMP_temperature;BMP_pressure;BME280_temperature;BME280_humidity;BME280_pressure;Samples;Min_cycle;Max_cycle;Signal;HPM_P1;HPM_P2
2021/09/28 00:01:54;;;;;;;11.12;7.65;;;;;;;;;;143726;595;46020;-54
2021/09/28 00:04:21;;;;;;;11.30;7.12;;;;;;;;;;143729;589;46012;-54
2021/09/28 00:06:48;;;;;;;11.00;7.47;;;;;;;;;;143729;566;46020;-55
2021/09/28 00:09:15;;;;;;;10.82;7.15;;;;;;;;;;143729;728;46021;-54
2021/09/28 00:11:42;;;;;;;12.60;7.32;;;;;;;;;;143728;599;46021;-54
2021/09/28 00:14:09;;;;;;;9.38;6.82;;;;;;;;;;143729;585;46012;-55
2021/09/28 00:16:36;;;;;;;10.75;8.07;;;;;;;;;;143733;570;45023;-55
2021/09/28 00:19:03;;;;;;;9.48;7.43;;;;;;;;;;143728;665;46023;-54
2021/09/28 00:21:30;;;;;;;10.20;7.25;;;;;;;;;;143728;609;46916;-54
2021/09/28 00:23:58;;;;;;;9.65;6.87;;;;;;;;;;143729;569;46012;-55
2021/09/28 00:26:25;;;;;;;11.63;7.75;;;;;;;;;;143733;615;45023;-54
2021/09/28 00:28:52;;;;;;;17.48;8.43;;;;;;;;;;143728;578;46022;-55
2021/09/28 00:31:19;;;;;;;12.55;7.78;;;;;;;;;;143729;581;46916;-55
2021/09/28 00:33:46;;;;;;;10.32;8.18;;;;;;;;;;143729;589;45911;-54
2021/09/28 00:36:13;;;;;;;12.43;7.32;;;;;;;;;;143734;713;45033;-55
2021/09/28 00:38:40;;;;;;;10.55;8.00;;;;;;;;;;143728;571;46022;-55
2021/09/28 00:41:07;;;;;;;9.13;7.22;;;;;;;;;;143727;570;46021;-55
2021/09/28 00:43:53;;;;;;;14.68;8.00;;;;;;;;;;143729;582;45910;-54
2021/09/28 00:46:21;;;;;;;10.90;7.37;;;;;;;;;;143729;570;46020;-54
2021/09/28 00:48:49;;;;;;;12.27;7.82;;;;;;;;;;143730;611;46020;-55
2021/09/28 00:51:17;;;;;;;10.32;7.22;;;;;;;;;;143727;592;46020;-54
2021/09/28 00:53:45;;;;;;;12.13;7.50;;;;;;;;;;143729;566;45910;-55
2021/09/28 00:56:18;;;;;;;9.32;7.25;;;;;;;;;;143730;628;46012;-55
2021/09/28 00:58:46;;;;;;;9.57;6.93;;;;;;;;;;143729;587;46020;-55
2021/09/28 01:01:14;;;;;;;11.07;7.37;;;;;;;;;;143728;586;46020;-54
2021/09/28 01:03:42;;;;;;;13.10;7.15;;;;;;;;;;143729;612;45911;-55
2021/09/28 01:06:09;;;;;;;10.85;7.28;;;;;;;;;;143733;581;45020;-54
2021/09/28 01:08:36;;;;;;;11.88;7.30;;;;;;;;;;143731;594;46020;-53
2021/09/28 01:11:04;;;;;;;10.70;7.93;;;;;;;;;;143729;569;46012;-55
2021/09/28 01:13:31;;;;;;;13.88;7.72;;;;;;;;;;143724;569;47014;-55
2021/09/28 01:16:15;;;;;;;14.32;8.35;;;;;;;;;;143732;579;46013;-55
2021/09/28 01:18:43;;;;;;;11.60;8.18;;;;;;;;;;143727;618;47020;-54
2021/09/28 01:21:14;;;;;;;10.77;8.20;;;;;;;;;;143728;625;46020;-55
2021/09/28 01:23:44;;;;;;;8.35;6.90;;;;;;;;;;143728;602;45912;-54
2021/09/28 01:26:13;;;;;;;15.60;8.55;;;;;;;;;;143730;853;46019;-55
2021/09/28 01:28:41;;;;;;;14.35;7.75;;;;;;;;;;143729;617;46020;-55
2021/09/28 01:31:08;;;;;;;11.50;7.53;;;;;;;;;;143727;624;46020;-54
2021/09/28 01:33:35;;;;;;;9.45;7.20;;;;;;;;;;143729;585;46012;-55
2021/09/28 01:36:02;;;;;;;10.18;7.62;;;;;;;;;;143731;590;46020;-54
2021/09/28 01:38:29;;;;;;;9.88;7.43;;;;;;;;;;143728;606;47021;-55
2021/09/28 01:40:56;;;;;;;15.90;7.72;;;;;;;;;;143730;621;46013;-54
2021/09/28 01:43:23;;;;;;;10.02;7.18;;;;;;;;;;143729;564;45910;-55
2021/09/28 01:45:56;;;;;;;12.75;7.68;;;;;;;;;;143731;634;45028;-54
2021/09/28 01:49:02;;;;;;;8.80;6.75;;;;;;;;;;143729;581;46021;-54
2021/09/28 01:51:29;;;;;;;8.63;6.20;;;;;;;;;;143728;566;46012;-54
2021/09/28 01:53:56;;;;;;;9.27;7.35;;;;;;;;;;143729;565;46012;-55
2021/09/28 01:56:25;;;;;;;11.50;7.65;;;;;;;;;;143732;574;45034;-55
2021/09/28 01:58:54;;;;;;;9.27;7.18;;;;;;;;;;143729;598;46020;-54
2021/09/28 02:01:21;;;;;;;13.85;8.63;;;;;;;;;;143728;566;46020;-54
2021/09/28 02:03:48;;;;;;;11.10;8.07;;;;;;;;;;143729;583;45912;-54
2021/09/28 02:06:19;;;;;;;13.27;7.43;;;;;;;;;;143731;626;46012;-54
2021/09/28 02:08:46;;;;;;;10.50;8.10;;;;;;;;;;143730;564;46022;-54
2021/09/28 02:11:13;;;;;;;11.32;7.82;;;;;;;;;;143727;587;46012;-55
2021/09/28 02:13:40;;;;;;;12.93;7.65;;;;;;;;;;143728;609;45912;-54
2021/09/28 02:16:08;;;;;;;11.07;7.45;;;;;;;;;;143727;625;46020;-55
2021/09/28 02:18:35;;;;;;;12.27;7.70;;;;;;;;;;143725;582;47020;-55
2021/09/28 02:21:02;;;;;;;12.40;7.53;;;;;;;;;;143727;611;46020;-55
2021/09/28 02:23:29;;;;;;;14.13;8.45;;;;;;;;;;143726;571;45912;-54
2021/09/28 02:25:57;;;;;;;11.45;7.90;;;;;;;;;;143729;564;46021;-55
2021/09/28 02:28:24;;;;;;;13.95;7.57;;;;;;;;;;143726;569;46022;-55
2021/09/28 02:30:53;;;;;;;11.32;7.75;;;;;;;;;;143725;576;46020;-55
2021/09/28 02:33:20;;;;;;;10.98;8.07;;;;;;;;;;143726;573;45912;-53
2021/09/28 02:35:47;;;;;;;11.43;7.40;;;;;;;;;;143729;585;45020;-54
2021/09/28 02:38:14;;;;;;;10.20;7.70;;;;;;;;;;143726;577;46022;-53
2021/09/28 02:40:41;;;;;;;16.65;8.23;;;;;;;;;;143726;613;46020;-54
2021/09/28 02:43:08;;;;;;;11.32;7.47;;;;;;;;;;143727;590;45912;-54
2021/09/28 02:45:35;;;;;;;11.35;8.25;;;;;;;;;;143730;613;45020;-55
2021/09/28 02:48:02;;;;;;;12.15;8.15;;;;;;;;;;143725;586;46023;-54
2021/09/28 02:50:33;;;;;;;18.87;7.82;;;;;;;;;;143724;663;46918;-54
2021/09/28 02:53:01;;;;;;;8.13;6.57;;;;;;;;;;143727;588;46012;-54
2021/09/28 02:55:29;;;;;;;9.68;7.15;;;;;;;;;;143729;600;46021;-53
2021/09/28 02:57:55;;;;;;;11.90;7.87;;;;;;;;;;143726;615;46020;-54
2021/09/28 03:00:23;;;;;;;11.73;8.40;;;;;;;;;;143725;584;46918;-55
2021/09/28 03:02:50;;;;;;;12.45;7.35;;;;;;;;;;143728;594;45913;-53
2021/09/28 03:05:16;;;;;;;10.35;7.03;;;;;;;;;;143732;671;45034;-54
2021/09/28 03:07:43;;;;;;;11.10;7.70;;;;;;;;;;143727;609;46020;-55
2021/09/28 03:10:11;;;;;;;11.57;7.60;;;;;;;;;;143726;608;46021;-55
2021/09/28 03:12:38;;;;;;;12.52;7.85;;;;;;;;;;143728;585;46012;-55
2021/09/28 03:15:06;;;;;;;13.00;7.75;;;;;;;;;;143728;576;46012;-54
2021/09/28 03:17:33;;;;;;;9.73;7.55;;;;;;;;;;143727;712;46021;-54
2021/09/28 03:20:00;;;;;;;12.15;8.10;;;;;;;;;;143725;600;46020;-54
2021/09/28 03:22:27;;;;;;;12.18;7.25;;;;;;;;;;143726;599;45912;-55
2021/09/28 03:24:54;;;;;;;12.60;7.43;;;;;;;;;;143731;629;45030;-55
2021/09/28 03:27:21;;;;;;;12.13;7.43;;;;;;;;;;143727;569;46020;-54
2021/09/28 03:29:48;;;;;;;13.23;8.40;;;;;;;;;;143727;582;46020;-54
2021/09/28 03:32:16;;;;;;;10.43;7.68;;;;;;;;;;143727;565;46012;-55
2021/09/28 03:34:43;;;;;;;14.02;7.50;;;;;;;;;;143731;626;45020;-55
2021/09/28 03:37:10;;;;;;;13.07;7.65;;;;;;;;;;143727;570;46020;-55
2021/09/28 03:39:37;;;;;;;17.55;7.47;;;;;;;;;;143725;577;46919;-55
2021/09/28 03:42:04;;;;;;;18.10;10.00;;;;;;;;;;143728;627;45912;-55
2021/09/28 03:44:31;;;;;;;15.38;7.75;;;;;;;;;;143730;628;45020;-54
2021/09/28 03:46:58;;;;;;;15.02;8.60;;;;;;;;;;143727;601;46021;-54
2021/09/28 03:49:25;;;;;;;14.68;9.60;;;;;;;;;;143730;564;46020;-55
2021/09/28 03:51:52;;;;;;;9.90;7.95;;;;;;;;;;143728;607;46012;-55
2021/09/28 03:54:19;;;;;;;12.75;8.15;;;;;;;;;;143730;598;45019;-54
2021/09/28 03:56:46;;;;;;;12.52;7.00;;;;;;;;;;143726;622;46022;-55
2021/09/28 03:59:13;;;;;;;13.85;8.45;;;;;;;;;;143725;627;46020;-54
2021/09/28 04:01:40;;;;;;;17.17;11.65;;;;;;;;;;143727;573;45912;-54
2021/09/28 04:04:07;;;;;;;29.55;9.82;;;;;;;;;;143731;592;45023;-55
2021/09/28 04:06:34;;;;;;;17.30;10.88;;;;;;;;;;143727;590;46020;-55
2021/09/28 04:09:02;;;;;;;17.73;9.68;;;;;;;;;;143730;614;46917;-54
2021/09/28 04:11:29;;;;;;;20.37;10.07;;;;;;;;;;143726;576;46012;-54
2021/09/28 04:13:56;;;;;;;14.40;8.85;;;;;;;;;;143730;587;45032;-55
2021/09/28 04:16:24;;;;;;;14.48;8.23;;;;;;;;;;143724;603;47023;-55
2021/09/28 04:18:52;;;;;;;12.68;8.32;;;;;;;;;;143725;630;46020;-55
2021/09/28 04:21:19;;;;;;;15.48;9.77;;;;;;;;;;143728;589;46012;-55
2021/09/28 04:23:46;;;;;;;20.05;9.52;;;;;;;;;;143730;620;45021;-55
2021/09/28 04:26:13;;;;;;;15.85;10.32;;;;;;;;;;143728;589;46020;-54
2021/09/28 04:28:40;;;;;;;20.20;9.57;;;;;;;;;;143724;580;46917;-56
2021/09/28 04:31:08;;;;;;;10.80;7.93;;;;;;;;;;143727;571;45912;-54
2021/09/28 04:33:35;;;;;;;16.23;8.90;;;;;;;;;;143728;639;46020;-55
2021/09/28 04:36:02;;;;;;;17.55;10.50;;;;;;;;;;143727;596;46020;-55
2021/09/28 04:38:29;;;;;;;12.35;8.20;;;;;;;;;;143728;617;46021;-55
2021/09/28 04:40:56;;;;;;;28.40;11.40;;;;;;;;;;143727;601;45912;-54
2021/09/28 04:43:23;;;;;;;17.92;10.13;;;;;;;;;;143729;718;46012;-55
2021/09/28 04:45:50;;;;;;;17.58;10.05;;;;;;;;;;143727;597;46021;-54
2021/09/28 04:48:17;;;;;;;18.77;9.07;;;;;;;;;;143726;621;46020;-54
2021/09/28 04:50:46;;;;;;;23.12;10.50;;;;;;;;;;143728;587;45912;-53
2021/09/28 04:53:14;;;;;;;15.30;8.73;;;;;;;;;;143728;571;46020;-54
2021/09/28 04:55:41;;;;;;;14.60;8.05;;;;;;;;;;143725;585;46020;-54
2021/09/28 04:58:08;;;;;;;18.25;8.57;;;;;;;;;;143729;595;46012;-54
2021/09/28 05:00:34;;;;;;;16.12;7.65;;;;;;;;;;143723;575;46012;-55
2021/09/28 05:03:01;;;;;;;17.90;8.80;;;;;;;;;;143730;575;45021;-55
2021/09/28 05:05:29;;;;;;;24.65;10.35;;;;;;;;;;143727;617;46020;-55
2021/09/28 05:07:56;;;;;;;14.55;8.35;;;;;;;;;;143726;585;46021;-55
2021/09/28 05:10:24;;;;;;;22.75;9.00;;;;;;;;;;143727;715;45911;-54
2021/09/28 05:12:51;;;;;;;15.10;8.50;;;;;;;;;;143729;573;46012;-54
2021/09/28 05:15:18;;;;;;;20.23;8.98;;;;;;;;;;143726;574;46022;-54
2021/09/28 05:17:45;;;;;;;19.40;10.20;;;;;;;;;;143725;579;46020;-54
2021/09/28 05:20:12;;;;;;;19.87;10.63;;;;;;;;;;143727;587;46012;-54
2021/09/28 05:22:39;;;;;;;22.13;9.82;;;;;;;;;;143729;616;45021;-54
2021/09/28 05:25:07;;;;;;;21.52;9.85;;;;;;;;;;143727;569;46020;-55
2021/09/28 05:27:34;;;;;;;25.90;11.30;;;;;;;;;;143727;565;47918;-54
2021/09/28 05:30:01;;;;;;;24.75;12.07;;;;;;;;;;143728;572;45911;-54
2021/09/28 05:32:28;;;;;;;36.70;17.75;;;;;;;;;;143730;634;46012;-55
2021/09/28 05:34:55;;;;;;;25.10;12.45;;;;;;;;;;143728;599;46020;-55
2021/09/28 05:37:22;;;;;;;22.08;12.35;;;;;;;;;;143725;630;46917;-54
2021/09/28 05:39:49;;;;;;;23.27;11.93;;;;;;;;;;143728;620;45911;-54
2021/09/28 05:42:16;;;;;;;22.58;12.07;;;;;;;;;;143728;643;46020;-54
2021/09/28 05:44:43;;;;;;;36.53;13.60;;;;;;;;;;143727;595;46021;-54
2021/09/28 05:47:10;;;;;;;30.92;14.85;;;;;;;;;;143725;581;46020;-55
2021/09/28 05:49:39;;;;;;;21.75;10.77;;;;;;;;;;143726;591;46012;-54
2021/09/28 05:52:08;;;;;;;23.23;12.05;;;;;;;;;;143727;622;46020;-55
2021/09/28 05:54:40;;;;;;;22.23;11.07;;;;;;;;;;143727;585;46032;-55
2021/09/28 05:57:07;;;;;;;33.30;10.55;;;;;;;;;;143725;608;46020;-55
2021/09/28 05:59:34;;;;;;;15.52;8.52;;;;;;;;;;143726;615;46012;-55
2021/09/28 06:02:01;;;;;;;14.10;8.05;;;;;;;;;;143729;575;45021;-55
2021/09/28 06:04:28;;;;;;;16.33;9.57;;;;;;;;;;143727;747;46020;-54
2021/09/28 06:06:56;;;;;;;16.45;8.30;;;;;;;;;;143725;627;46020;-54
2021/09/28 06:09:23;;;;;;;17.95;8.98;;;;;;;;;;143727;602;45913;-55
2021/09/28 06:11:51;;;;;;;10.63;7.30;;;;;;;;;;143729;577;46020;-55
2021/09/28 06:14:18;;;;;;;15.02;7.40;;;;;;;;;;143726;598;46022;-56
2021/09/28 06:16:45;;;;;;;11.32;7.62;;;;;;;;;;143725;589;46021;-55
2021/09/28 06:19:12;;;;;;;14.00;6.70;;;;;;;;;;143726;602;46029;-56
2021/09/28 06:21:39;;;;;;;12.85;7.20;;;;;;;;;;143728;600;46012;-55
2021/09/28 06:24:06;;;;;;;15.95;7.82;;;;;;;;;;143727;572;46020;-56
2021/09/28 06:26:33;;;;;;;11.95;7.00;;;;;;;;;;143726;584;46020;-56
2021/09/28 06:29:00;;;;;;;11.93;7.15;;;;;;;;;;143727;613;45912;-55
2021/09/28 06:31:27;;;;;;;11.43;6.32;;;;;;;;;;143730;698;45021;-55
2021/09/28 06:33:54;;;;;;;19.02;10.65;;;;;;;;;;143728;583;46020;-55
2021/09/28 06:36:21;;;;;;;14.05;6.50;;;;;;;;;;143727;602;46917;-55
2021/09/28 06:38:48;;;;;;;14.00;6.28;;;;;;;;;;143728;581;45913;-56
2021/09/28 06:41:15;;;;;;;10.00;6.03;;;;;;;;;;143729;570;45021;-56
2021/09/28 06:43:42;;;;;;;8.85;5.85;;;;;;;;;;143726;569;46022;-56
2021/09/28 06:46:09;;;;;;;12.23;6.30;;;;;;;;;;143724;678;46919;-57
2021/09/28 06:48:36;;;;;;;10.80;6.30;;;;;;;;;;143725;636;46020;-55
2021/09/28 06:51:03;;;;;;;11.02;6.43;;;;;;;;;;143729;582;45021;-56
2021/09/28 06:53:30;;;;;;;14.02;7.65;;;;;;;;;;143727;580;46021;-57
2021/09/28 06:55:57;;;;;;;15.27;6.18;;;;;;;;;;143725;601;46020;-56
2021/09/28 06:58:25;;;;;;;12.37;6.60;;;;;;;;;;143727;574;45912;-56
2021/09/28 07:00:52;;;;;;;9.82;6.10;;;;;;;;;;143729;565;46013;-57
2021/09/28 07:03:20;;;;;;;9.43;6.18;;;;;;;;;;143727;576;46020;-57
2021/09/28 07:05:47;;;;;;;9.20;5.87;;;;;;;;;;143724;576;46919;-57
2021/09/28 07:08:15;;;;;;;12.60;5.87;;;;;;;;;;143727;610;45913;-57
2021/09/28 07:10:42;;;;;;;12.07;5.75;;;;;;;;;;143730;579;45022;-57
2021/09/28 07:13:09;;;;;;;10.18;5.78;;;;;;;;;;143726;636;47020;-57
2021/09/28 07:15:36;;;;;;;11.02;6.28;;;;;;;;;;143727;569;46013;-56
2021/09/28 07:18:04;;;;;;;11.55;5.85;;;;;;;;;;143725;626;46020;-56
2021/09/28 07:20:31;;;;;;;7.93;6.00;;;;;;;;;;143727;591;46020;-54
2021/09/28 07:22:58;;;;;;;9.13;6.07;;;;;;;;;;143727;570;46021;-55
2021/09/28 07:25:25;;;;;;;10.02;6.00;;;;;;;;;;143726;569;46020;-55
2021/09/28 07:27:57;;;;;;;12.45;5.10;;;;;;;;;;143726;628;46012;-57
2021/09/28 07:30:25;;;;;;;9.43;6.10;;;;;;;;;;143728;564;46020;-56
2021/09/28 07:32:52;;;;;;;10.30;5.97;;;;;;;;;;143727;570;46020;-56
2021/09/28 07:35:19;;;;;;;9.57;5.78;;;;;;;;;;143728;605;46020;-56
2021/09/28 07:37:46;;;;;;;9.75;5.93;;;;;;;;;;143723;615;46021;-55
2021/09/28 07:40:14;;;;;;;9.55;5.68;;;;;;;;;;143731;575;45021;-56
2021/09/28 07:42:41;;;;;;;9.00;5.70;;;;;;;;;;143727;603;46020;-55
2021/09/28 07:45:09;;;;;;;14.95;6.10;;;;;;;;;;143724;594;46918;-55
2021/09/28 07:47:36;;;;;;;10.00;6.07;;;;;;;;;;143727;648;46012;-55
2021/09/28 07:50:04;;;;;;;11.77;5.97;;;;;;;;;;143731;630;45021;-55
2021/09/28 07:52:31;;;;;;;9.80;6.03;;;;;;;;;;143727;597;46021;-56
2021/09/28 07:54:58;;;;;;;9.35;5.40;;;;;;;;;;143727;742;46020;-56
2021/09/28 07:57:25;;;;;;;8.57;5.57;;;;;;;;;;143728;631;45912;-56
2021/09/28 07:59:54;;;;;;;12.52;5.25;;;;;;;;;;143730;609;45021;-56
2021/09/28 08:02:22;;;;;;;10.77;6.10;;;;;;;;;;143728;581;46020;-56
2021/09/28 08:04:49;;;;;;;10.65;5.65;;;;;;;;;;143726;619;46020;-54
2021/09/28 08:07:17;;;;;;;10.15;5.80;;;;;;;;;;143728;592;46013;-54
2021/09/28 08:09:44;;;;;;;16.33;5.87;;;;;;;;;;143727;583;46020;-54
2021/09/28 08:12:12;;;;;;;16.27;5.93;;;;;;;;;;143728;571;46020;-54
2021/09/28 08:14:39;;;;;;;8.60;5.53;;;;;;;;;;143726;574;46021;-54
2021/09/28 08:17:06;;;;;;;9.13;5.30;;;;;;;;;;143726;564;46020;-53
2021/09/28 08:19:33;;;;;;;7.30;5.10;;;;;;;;;;143727;569;46020;-54
2021/09/28 08:22:01;;;;;;;10.98;5.40;;;;;;;;;;143728;566;46021;-54
2021/09/28 08:24:35;;;;;;;7.68;5.05;;;;;;;;;;143727;633;46919;-55
2021/09/28 08:29:47;;;;;;;11.85;5.07;;;;;;;;;;143731;603;46014;-55
2021/09/28 08:32:14;;;;;;;8.85;5.60;;;;;;;;;;143728;569;46032;-55
2021/09/28 08:34:41;;;;;;;9.25;5.00;;;;;;;;;;143730;573;46012;-54
2021/09/28 08:37:08;;;;;;;9.70;5.60;;;;;;;;;;143730;645;45910;-53
2021/09/28 08:39:35;;;;;;;10.45;5.78;;;;;;;;;;143730;572;46012;-53
2021/09/28 08:42:02;;;;;;;10.15;6.18;;;;;;;;;;143728;602;46020;-54
2021/09/28 08:44:29;;;;;;;8.70;6.30;;;;;;;;;;143731;583;46013;-54
2021/09/28 08:46:56;;;;;;;8.40;5.70;;;;;;;;;;143728;572;45910;-54
2021/09/28 08:49:23;;;;;;;8.85;5.90;;;;;;;;;;143731;577;45020;-55
2021/09/28 08:51:52;;;;;;;9.27;5.50;;;;;;;;;;143726;583;46047;-55
2021/09/28 08:54:19;;;;;;;10.52;6.03;;;;;;;;;;143726;608;46020;-55
2021/09/28 08:56:47;;;;;;;6.68;5.00;;;;;;;;;;143729;569;45910;-54
2021/09/28 08:59:15;;;;;;;7.93;5.47;;;;;;;;;;143730;605;46012;-54
2021/09/28 09:02:06;;;;;;;7.25;5.50;;;;;;;;;;143726;617;46020;-52
2021/09/28 09:04:33;;;;;;;12.10;5.93;;;;;;;;;;143726;595;46916;-53
2021/09/28 09:07:00;;;;;;;9.77;5.68;;;;;;;;;;143727;594;45910;-52
2021/09/28 09:09:27;;;;;;;8.60;5.82;;;;;;;;;;143729;599;46012;-54
2021/09/28 09:11:58;;;;;;;10.57;5.87;;;;;;;;;;143724;571;49020;-54
2021/09/28 09:14:26;;;;;;;8.43;5.60;;;;;;;;;;143728;632;46021;-55
2021/09/28 09:16:56;;;;;;;10.85;5.18;;;;;;;;;;143727;597;45910;-55
2021/09/28 09:19:26;;;;;;;8.77;5.97;;;;;;;;;;143730;659;46012;-55
2021/09/28 09:22:01;;;;;;;12.73;5.43;;;;;;;;;;143729;605;46021;-55
2021/09/28 09:24:53;;;;;;;13.80;6.12;;;;;;;;;;143732;594;46012;-55
2021/09/28 09:27:31;;;;;;;9.43;5.60;;;;;;;;;;143728;624;45910;-55
2021/09/28 09:30:13;;;;;;;12.30;5.75;;;;;;;;;;143728;570;46012;-55
2021/09/28 09:32:55;;;;;;;8.20;5.70;;;;;;;;;;143728;565;46020;-55
2021/09/28 09:35:34;;;;;;;13.48;5.95;;;;;;;;;;143727;610;46012;-55
2021/09/28 09:38:11;;;;;;;9.88;5.78;;;;;;;;;;143727;583;46021;-55
2021/09/28 09:40:42;;;;;;;7.60;5.03;;;;;;;;;;143731;603;45020;-55
2021/09/28 09:43:11;;;;;;;11.82;5.95;;;;;;;;;;143729;611;46021;-55
2021/09/28 09:45:38;;;;;;;11.85;5.93;;;;;;;;;;143728;600;46012;-55
2021/09/28 09:48:24;;;;;;;9.00;5.30;;;;;;;;;;143728;591;45910;-55
2021/09/28 09:51:03;;;;;;;11.95;5.47;;;;;;;;;;143732;580;45044;-54
2021/09/28 09:53:31;;;;;;;10.88;6.03;;;;;;;;;;143729;570;46020;-55
2021/09/28 09:55:58;;;;;;;7.37;5.72;;;;;;;;;;143728;646;46012;-54
2021/09/28 09:58:26;;;;;;;10.32;5.35;;;;;;;;;;143729;564;46012;-54
2021/09/28 10:00:54;;;;;;;11.32;5.53;;;;;;;;;;143729;643;46020;-55
2021/09/28 10:03:22;;;;;;;10.10;5.40;;;;;;;;;;143729;578;46020;-53
2021/09/28 10:05:49;;;;;;;16.95;5.78;;;;;;;;;;143729;574;46012;-53
2021/09/28 10:08:16;;;;;;;9.52;5.40;;;;;;;;;;143729;571;46012;-53
2021/09/28 10:10:44;;;;;;;13.38;7.00;;;;;;;;;;143730;610;46020;-53
2021/09/28 10:14:06;;;;;;;9.82;5.72;;;;;;;;;;143727;657;47021;-53
2021/09/28 10:16:44;;;;;;;11.10;5.43;;;;;;;;;;143727;587;46918;-53
2021/09/28 10:19:52;;;;;;;10.07;5.12;;;;;;;;;;143729;586;46012;-54
2021/09/28 10:22:57;;;;;;;7.82;5.12;;;;;;;;;;143730;585;46021;-53
2021/09/28 10:25:31;;;;;;;22.45;6.22;;;;;;;;;;143728;715;46022;-53
2021/09/28 10:28:27;;;;;;;13.20;5.93;;;;;;;;;;143729;624;46012;-52
2021/09/28 10:30:54;;;;;;;8.32;6.32;;;;;;;;;;143729;583;45910;-54
2021/09/28 10:33:29;;;;;;;16.35;9.43;;;;;;;;;;143732;599;45021;-53
2021/09/28 10:36:11;;;;;;;13.55;10.32;;;;;;;;;;143729;656;46021;-53
2021/09/28 10:38:59;;;;;;;10.07;7.03;;;;;;;;;;143729;635;46012;-54
2021/09/28 10:41:45;;;;;;;10.73;8.45;;;;;;;;;;143728;662;46020;-53
2021/09/28 10:44:47;;;;;;;12.20;6.05;;;;;;;;;;143731;631;46021;-53
2021/09/28 10:47:44;;;;;;;8.43;6.03;;;;;;;;;;143729;610;46020;-54
2021/09/28 10:50:27;;;;;;;10.73;5.43;;;;;;;;;;143729;564;46013;-55
2021/09/28 10:52:56;;;;;;;9.82;5.70;;;;;;;;;;143729;585;46012;-53
2021/09/28 10:55:46;;;;;;;8.50;5.12;;;;;;;;;;143732;599;45020;-53
2021/09/28 10:58:18;;;;;;;7.25;5.22;;;;;;;;;;143732;721;46022;-53
2021/09/28 11:01:09;;;;;;;10.48;5.60;;;;;;;;;;143728;582;46012;-53
2021/09/28 11:03:56;;;;;;;10.60;5.72;;;;;;;;;;143730;575;45908;-53
2021/09/28 11:06:51;;;;;;;8.48;6.60;;;;;;;;;;143729;665;48021;-53
2021/09/28 11:09:20;;;;;;;12.70;8.65;;;;;;;;;;143729;621;46020;-53
2021/09/28 11:11:52;;;;;;;15.35;7.75;;;;;;;;;;143729;617;46020;-52
2021/09/28 11:14:19;;;;;;;15.88;8.82;;;;;;;;;;143730;594;45911;-54
2021/09/28 11:16:53;;;;;;;9.85;6.40;;;;;;;;;;143731;648;46012;-53
2021/09/28 11:19:21;;;;;;;9.68;6.07;;;;;;;;;;143729;596;46020;-52
2021/09/28 11:21:49;;;;;;;8.88;6.75;;;;;;;;;;143727;589;46021;-53
2021/09/28 11:24:24;;;;;;;8.95;6.30;;;;;;;;;;143729;601;46012;-53
2021/09/28 11:26:59;;;;;;;9.13;6.65;;;;;;;;;;143729;581;46020;-53
2021/09/28 11:29:26;;;;;;;9.48;6.20;;;;;;;;;;143729;581;46021;-53
2021/09/28 11:31:53;;;;;;;7.57;6.10;;;;;;;;;;143728;585;46020;-53
2021/09/28 11:34:29;;;;;;;12.63;6.35;;;;;;;;;;143729;570;45910;-52
2021/09/28 11:37:01;;;;;;;10.02;5.82;;;;;;;;;;143731;567;46021;-53
2021/09/28 11:39:38;;;;;;;10.52;6.25;;;;;;;;;;143729;566;46020;-52
2021/09/28 11:42:06;;;;;;;12.75;8.00;;;;;;;;;;143729;585;46021;-52
2021/09/28 11:44:39;;;;;;;9.82;7.28;;;;;;;;;;143729;574;46012;-52
2021/09/28 11:47:14;;;;;;;8.70;7.10;;;;;;;;;;143732;594;45021;-52
2021/09/28 11:49:49;;;;;;;11.40;9.23;;;;;;;;;;143730;604;46021;-54
2021/09/28 11:52:16;;;;;;;13.88;9.40;;;;;;;;;;143728;580;46020;-53
2021/09/28 11:54:45;;;;;;;11.75;7.95;;;;;;;;;;143728;602;45910;-55
2021/09/28 11:57:13;;;;;;;18.23;9.82;;;;;;;;;;143732;586;45021;-55
2021/09/28 11:59:40;;;;;;;11.43;8.23;;;;;;;;;;143729;564;46020;-54
2021/09/28 12:02:08;;;;;;;14.40;8.77;;;;;;;;;;143730;564;46012;-55
2021/09/28 12:05:24;;;;;;;11.75;7.97;;;;;;;;;;143728;600;46912;-55
2021/09/28 12:10:40;;;;;;;14.90;7.13;;;;;;;;;;143728;717;46020;-55
2021/09/28 12:13:26;;;;;;;15.38;6.82;;;;;;;;;;143731;594;46021;-55
2021/09/28 12:16:10;;;;;;;11.38;6.65;;;;;;;;;;143729;581;45910;-54
2021/09/28 12:18:38;;;;;;;9.88;7.15;;;;;;;;;;143731;596;46012;-53
2021/09/28 12:21:22;;;;;;;8.85;6.80;;;;;;;;;;143729;564;46021;-55
2021/09/28 12:24:10;;;;;;;11.10;7.00;;;;;;;;;;143729;564;46012;-55
2021/09/28 12:26:37;;;;;;;8.68;6.68;;;;;;;;;;143729;583;45908;-54
2021/09/28 12:29:21;;;;;;;11.70;7.37;;;;;;;;;;143733;662;45021;-54
2021/09/28 12:31:50;;;;;;;7.93;5.80;;;;;;;;;;143729;571;46020;-54
2021/09/28 12:34:17;;;;;;;10.98;6.03;;;;;;;;;;143728;589;46020;-54
2021/09/28 12:36:44;;;;;;;17.37;7.30;;;;;;;;;;143730;640;45911;-55
2021/09/28 12:39:20;;;;;;;10.07;6.47;;;;;;;;;;143729;649;46020;-55
2021/09/28 12:42:01;;;;;;;11.48;7.00;;;;;;;;;;143730;583;46020;-55
2021/09/28 12:44:28;;;;;;;9.35;5.93;;;;;;;;;;143728;626;46917;-54
2021/09/28 12:46:55;;;;;;;9.52;5.78;;;;;;;;;;143730;577;45910;-54
2021/09/28 12:49:33;;;;;;;10.73;6.18;;;;;;;;;;143730;654;46020;-54
2021/09/28 12:52:00;;;;;;;8.23;5.68;;;;;;;;;;143729;669;46021;-55
2021/09/28 12:54:28;;;;;;;8.90;6.18;;;;;;;;;;143728;589;46033;-55
2021/09/28 12:56:56;;;;;;;11.65;6.55;;;;;;;;;;143729;592;45910;-55
2021/09/28 12:59:24;;;;;;;7.70;5.40;;;;;;;;;;143733;579;45021;-54
2021/09/28 13:01:51;;;;;;;9.18;6.15;;;;;;;;;;143729;569;46020;-54
2021/09/28 13:04:18;;;;;;;10.85;6.10;;;;;;;;;;143732;653;46020;-55
2021/09/28 13:06:48;;;;;;;9.25;6.50;;;;;;;;;;143727;650;46020;-54
2021/09/28 13:09:15;;;;;;;7.18;5.37;;;;;;;;;;143732;686;46012;-54
2021/09/28 13:11:42;;;;;;;10.85;6.60;;;;;;;;;;143728;566;46022;-54
2021/09/28 13:14:09;;;;;;;8.90;5.70;;;;;;;;;;143728;627;46012;-54
2021/09/28 13:16:37;;;;;;;10.77;6.25;;;;;;;;;;143730;604;45910;-54
2021/09/28 13:19:04;;;;;;;10.07;6.12;;;;;;;;;;143732;640;45021;-53
2021/09/28 13:21:31;;;;;;;8.48;5.70;;;;;;;;;;143725;623;47023;-55
2021/09/28 13:23:58;;;;;;;9.55;5.93;;;;;;;;;;143728;599;46012;-55
2021/09/28 13:26:25;;;;;;;10.77;6.20;;;;;;;;;;143729;612;45910;-54
2021/09/28 13:28:52;;;;;;;9.93;6.25;;;;;;;;;;143732;602;45035;-54
2021/09/28 13:31:19;;;;;;;10.18;6.43;;;;;;;;;;143729;626;46020;-54
2021/09/28 13:33:46;;;;;;;9.65;6.70;;;;;;;;;;143728;607;46020;-54
2021/09/28 13:36:24;;;;;;;8.45;5.87;;;;;;;;;;143727;646;46020;-55
2021/09/28 13:38:51;;;;;;;8.27;5.87;;;;;;;;;;143730;669;46012;-55
2021/09/28 13:41:18;;;;;;;8.32;5.55;;;;;;;;;;143727;661;47022;-54
2021/09/28 13:43:45;;;;;;;12.55;6.40;;;;;;;;;;143729;592;46021;-54
2021/09/28 13:46:12;;;;;;;10.48;6.22;;;;;;;;;;143730;589;45910;-54
2021/09/28 13:48:39;;;;;;;11.23;6.30;;;;;;;;;;143730;566;46020;-54
2021/09/28 13:51:06;;;;;;;9.27;6.07;;;;;;;;;;143728;592;46023;-55
2021/09/28 13:53:33;;;;;;;8.57;6.50;;;;;;;;;;143727;608;46020;-54
2021/09/28 13:56:01;;;;;;;9.40;6.28;;;;;;;;;;143730;576;45910;-54
2021/09/28 13:58:28;;;;;;;12.05;6.35;;;;;;;;;;143733;716;45034;-55
2021/09/28 14:00:55;;;;;;;13.62;6.82;;;;;;;;;;143728;582;46022;-55
2021/09/28 14:03:22;;;;;;;9.95;6.22;;;;;;;;;;143730;581;46020;-54
2021/09/28 14:05:49;;;;;;;10.68;6.75;;;;;;;;;;143731;564;45911;-54
2021/09/28 14:08:16;;;;;;;10.55;6.43;;;;;;;;;;143730;592;46020;-54
2021/09/28 14:10:43;;;;;;;8.57;6.72;;;;;;;;;;143728;608;46022;-54
2021/09/28 14:13:11;;;;;;;11.38;6.65;;;;;;;;;;143728;659;46021;-54
2021/09/28 14:15:38;;;;;;;11.27;6.47;;;;;;;;;;143729;633;45910;-55
2021/09/28 14:18:05;;;;;;;8.40;6.12;;;;;;;;;;143730;595;46020;-54
2021/09/28 14:20:32;;;;;;;8.93;6.45;;;;;;;;;;143728;593;46023;-55
2021/09/28 14:23:00;;;;;;;9.90;6.25;;;;;;;;;;143727;585;46916;-54
2021/09/28 14:25:27;;;;;;;8.68;6.25;;;;;;;;;;143729;658;46012;-56
2021/09/28 14:27:54;;;;;;;10.27;6.30;;;;;;;;;;143731;564;46021;-55
2021/09/28 14:30:21;;;;;;;10.25;6.53;;;;;;;;;;143727;581;47020;-54
2021/09/28 14:32:48;;;;;;;11.63;6.55;;;;;;;;;;143728;580;46020;-54
2021/09/28 14:35:15;;;;;;;10.07;6.50;;;;;;;;;;143728;564;45910;-54
2021/09/28 14:37:43;;;;;;;12.77;6.40;;;;;;;;;;143739;585;46020;-55
2021/09/28 14:40:11;;;;;;;11.85;7.15;;;;;;;;;;143735;575;46020;-55
2021/09/28 14:42:38;;;;;;;9.27;6.15;;;;;;;;;;143738;581;46916;-54
2021/09/28 14:45:06;;;;;;;10.68;6.07;;;;;;;;;;143739;571;46020;-54
2021/09/28 14:47:33;;;;;;;12.73;6.95;;;;;;;;;;143743;582;45020;-54
2021/09/28 14:50:00;;;;;;;8.80;6.55;;;;;;;;;;143740;574;46022;-54
2021/09/28 14:52:27;;;;;;;8.98;6.45;;;;;;;;;;143740;769;46012;-55
2021/09/28 14:54:54;;;;;;;10.38;6.65;;;;;;;;;;143743;666;45910;-54